Drobeta Tr. Severin, Romania
Current Conditions -  °F | °C
As of 1:00 PM on Sunday 25 Jan 2015 (Local Time) from LRCV Reporting Station
Haze Haze  
Wind Chill: 30°   Ceiling: 200
Heat Index: 36°   Visibility: 1.2mi
Dew Point: 34°   Wind: 7mph
Humidity: 93%   Direction: 50°NE
Pressure: 29.91"   Gusts: NA
Location:  44.63°N, 22.63°E
Report Text: LRCV 251000Z 05006KT 2000 BR BKN002 02/01 Q1013 R09/29//95
Loading
Personal Weather Stations






























Interactive Weather Map New forecast layout! Learn more

10-Day Weather Forecast

Advertisements
Track Severe Weather on mobile